Time;durP1;ratioP1;P1;durP2;ratioP2;P2;SDS_P1;SDS_P2;PMS_P1;PMS_P2;Temp;Humidity;BMP_temperature;BMP_pressure;BME280_temperature;BME280_humidity;BME280_pressure;Samples;Min_cycle;Max_cycle;Signal;HPM_P1;HPM_P2
2024/03/27 00:01:26;;;;;;;;;;;;;;;8.43;34.22;92761.28;4943269;28;20366;-69
2024/03/27 00:03:52;;;;;;;;;;;;;;;8.44;34.24;92750.44;4922697;28;19926;-68
2024/03/27 00:06:17;;;;;;;;;;;;;;;8.40;35.01;92751.16;4926339;28;19926;-68
2024/03/27 00:08:42;;;;;;;;;;;;;;;8.42;35.23;92743.78;4944491;28;19923;-68
2024/03/27 00:11:08;;;;;;;;;;;;;;;8.47;35.19;92741.22;4929469;28;19985;-68
2024/03/27 00:13:34;;;;;;;;;;;;;;;8.49;35.24;92738.34;4922269;28;20768;-69
2024/03/27 00:15:59;;;;;;;;;;;;;;;8.55;34.44;92738.22;4943626;28;19926;-68
2024/03/27 00:18:24;;;;;;;;;;;;;;;8.71;33.95;92748.28;4937200;28;20415;-69
2024/03/27 00:20:50;;;;;;;;;;;;;;;8.71;34.09;92751.75;4921880;29;19977;-69
2024/03/27 00:23:16;;;;;;;;;;;;;;;8.74;34.17;92745.19;4936097;28;19926;-69
2024/03/27 00:25:41;;;;;;;;;;;;;;;8.71;33.56;92741.16;4941098;28;19931;-69
2024/03/27 00:28:07;;;;;;;;;;;;;;;8.73;33.78;92744.38;4921844;29;20013;-68
2024/03/27 00:30:32;;;;;;;;;;;;;;;8.74;34.27;92738.00;4921528;29;19927;-69
2024/03/27 00:32:59;;;;;;;;;;;;;;;8.76;33.58;92732.47;4921621;29;19927;-69
2024/03/27 00:35:24;;;;;;;;;;;;;;;8.79;33.97;92732.81;4921217;28;19926;-69
2024/03/27 00:37:50;;;;;;;;;;;;;;;8.82;33.59;92740.31;4922250;28;19958;-68
2024/03/27 00:40:15;;;;;;;;;;;;;;;8.81;33.49;92733.38;4921550;29;19991;-68
2024/03/27 00:42:40;;;;;;;;;;;;;;;8.78;33.34;92728.53;4929795;28;20110;-68
2024/03/27 00:45:06;;;;;;;;;;;;;;;8.81;33.49;92730.72;4940877;28;19929;-68
2024/03/27 00:47:31;;;;;;;;;;;;;;;8.83;33.88;92725.19;4922550;28;19941;-68
2024/03/27 00:49:56;;;;;;;;;;;;;;;8.77;33.66;92721.63;4921145;29;19934;-69
2024/03/27 00:52:22;;;;;;;;;;;;;;;8.82;33.45;92724.38;4940664;28;20443;-69
2024/03/27 00:54:47;;;;;;;;;;;;;;;8.91;32.89;92724.00;4939766;28;20273;-69
2024/03/27 00:57:12;;;;;;;;;;;;;;;8.95;32.62;92725.16;4940706;28;20423;-69
2024/03/27 00:59:37;;;;;;;;;;;;;;;8.85;32.97;92719.63;4938746;28;20392;-69
2024/03/27 01:02:02;;;;;;;;;;;;;;;8.83;33.18;92722.53;4936847;28;19930;-69
2024/03/27 01:04:28;;;;;;;;;;;;;;;8.70;34.10;92720.97;4939242;29;20515;-69
2024/03/27 01:06:53;;;;;;;;;;;;;;;8.74;33.80;92723.97;4940369;28;19933;-69
2024/03/27 01:09:18;;;;;;;;;;;;;;;8.65;34.16;92713.72;4941430;29;19922;-69
2024/03/27 01:11:44;;;;;;;;;;;;;;;8.63;34.12;92707.03;4940945;28;19933;-69
2024/03/27 01:14:09;;;;;;;;;;;;;;;8.61;33.69;92715.25;4940790;28;19922;-69
2024/03/27 01:16:35;;;;;;;;;;;;;;;8.59;33.44;92711.19;4941048;28;20046;-69
2024/03/27 01:19:00;;;;;;;;;;;;;;;8.54;33.87;92720.66;4941026;28;19927;-69
2024/03/27 01:21:25;;;;;;;;;;;;;;;8.40;34.62;92698.94;4938863;28;20005;-69
2024/03/27 01:23:50;;;;;;;;;;;;;;;8.30;34.11;92698.75;4940754;28;19953;-69
2024/03/27 01:26:16;;;;;;;;;;;;;;;8.25;34.45;92691.50;4939003;28;19938;-69
2024/03/27 01:28:41;;;;;;;;;;;;;;;8.18;34.22;92690.84;4940885;28;19930;-69
2024/03/27 01:31:06;;;;;;;;;;;;;;;8.10;34.08;92688.56;4936856;28;19930;-69
2024/03/27 01:33:31;;;;;;;;;;;;;;;8.01;34.20;92688.91;4940243;29;20752;-69
2024/03/27 01:35:56;;;;;;;;;;;;;;;7.89;34.58;92677.53;4939573;28;19949;-69
2024/03/27 01:38:22;;;;;;;;;;;;;;;7.81;34.69;92675.22;4940271;28;19934;-69
2024/03/27 01:40:47;;;;;;;;;;;;;;;7.71;35.25;92676.59;4940437;28;19926;-69
2024/03/27 01:43:12;;;;;;;;;;;;;;;7.61;35.55;92658.66;4939423;28;19926;-69
2024/03/27 01:45:37;;;;;;;;;;;;;;;7.54;35.27;92657.97;4939320;29;20025;-69
2024/03/27 01:48:03;;;;;;;;;;;;;;;7.48;35.31;92669.50;4939776;28;20300;-69
2024/03/27 01:50:29;;;;;;;;;;;;;;;7.41;35.24;92666.94;4939355;28;20183;-70
2024/03/27 01:52:57;;;;;;;;;;;;;;;7.31;35.75;92658.81;4940218;28;20515;-70
2024/03/27 01:55:22;;;;;;;;;;;;;;;7.27;35.69;92648.66;4937475;29;20449;-69
2024/03/27 01:57:48;;;;;;;;;;;;;;;7.15;36.16;92645.22;4940060;28;19927;-69
2024/03/27 02:00:14;;;;;;;;;;;;;;;7.11;36.10;92652.00;4936327;29;19922;-69
2024/03/27 02:02:39;;;;;;;;;;;;;;;7.04;36.66;92653.94;4936623;28;20052;-69
2024/03/27 02:05:05;;;;;;;;;;;;;;;6.95;36.17;92656.94;4938479;29;19926;-69
2024/03/27 02:07:30;;;;;;;;;;;;;;;6.88;36.50;92661.53;4938576;28;19926;-69
2024/03/27 02:09:56;;;;;;;;;;;;;;;6.81;36.99;92653.69;4939961;28;20280;-69
2024/03/27 02:12:21;;;;;;;;;;;;;;;6.74;37.44;92653.78;4939724;28;20285;-69
2024/03/27 02:14:46;;;;;;;;;;;;;;;6.70;37.85;92639.41;4940416;28;19926;-69
2024/03/27 02:17:11;;;;;;;;;;;;;;;6.61;38.39;92638.94;4940334;28;19926;-69
2024/03/27 02:19:37;;;;;;;;;;;;;;;6.58;37.10;92642.03;4939482;28;19927;-69
2024/03/27 02:22:02;;;;;;;;;;;;;;;6.49;39.44;92633.63;4940028;28;20303;-69
2024/03/27 02:24:28;;;;;;;;;;;;;;;6.46;38.15;92631.38;4940288;29;19922;-69
2024/03/27 02:26:53;;;;;;;;;;;;;;;6.51;37.62;92636.03;4940590;28;20017;-69
2024/03/27 02:29:18;;;;;;;;;;;;;;;6.48;37.91;92620.59;4940274;28;19919;-69
2024/03/27 02:31:44;;;;;;;;;;;;;;;6.44;37.88;92627.38;4939654;28;20462;-69
2024/03/27 02:34:09;;;;;;;;;;;;;;;6.40;37.62;92619.09;4939381;28;19981;-69
2024/03/27 02:36:34;;;;;;;;;;;;;;;6.39;37.68;92620.09;4940542;28;20014;-69
2024/03/27 02:38:59;;;;;;;;;;;;;;;6.34;37.34;92635.84;4939757;28;19934;-69
2024/03/27 02:41:25;;;;;;;;;;;;;;;6.27;37.45;92648.31;4939698;29;19923;-69
2024/03/27 02:43:50;;;;;;;;;;;;;;;6.17;37.63;92649.69;4937388;28;20742;-69
2024/03/27 02:46:15;;;;;;;;;;;;;;;6.10;37.71;92649.78;4939906;28;19952;-69
2024/03/27 02:48:40;;;;;;;;;;;;;;;6.10;38.42;92646.31;4941208;28;19930;-69
2024/03/27 02:51:06;;;;;;;;;;;;;;;6.08;37.80;92635.16;4939976;28;20282;-69
2024/03/27 02:53:31;;;;;;;;;;;;;;;5.98;37.72;92633.03;4940087;28;19930;-69
2024/03/27 02:55:56;;;;;;;;;;;;;;;5.90;37.90;92628.88;4939488;28;19936;-70
2024/03/27 02:58:22;;;;;;;;;;;;;;;5.83;37.64;92617.59;4940042;28;19934;-70
2024/03/27 03:00:48;;;;;;;;;;;;;;;5.76;38.20;92619.50;4937633;28;19941;-69
2024/03/27 03:03:14;;;;;;;;;;;;;;;5.62;37.93;92619.69;4937609;28;20427;-69
2024/03/27 03:05:39;;;;;;;;;;;;;;;5.50;38.59;92621.44;4938573;28;20020;-69
2024/03/27 03:08:04;;;;;;;;;;;;;;;5.37;38.35;92612.63;4940966;28;19922;-69
2024/03/27 03:10:30;;;;;;;;;;;;;;;5.32;38.38;92612.47;4942024;28;20492;-70
2024/03/27 03:12:55;;;;;;;;;;;;;;;5.25;38.41;92623.09;4942434;28;19926;-68
2024/03/27 03:15:20;;;;;;;;;;;;;;;5.13;39.91;92622.22;4942382;28;19930;-68
2024/03/27 03:17:47;;;;;;;;;;;;;;;5.03;39.63;92627.97;4940551;28;19922;-68
2024/03/27 03:20:13;;;;;;;;;;;;;;;4.90;42.01;92621.75;4940154;28;19929;-68
2024/03/27 03:22:38;;;;;;;;;;;;;;;4.62;40.46;92638.03;4940905;28;19926;-68
2024/03/27 03:25:04;;;;;;;;;;;;;;;4.75;43.68;92634.47;4945326;28;19957;-68
2024/03/27 03:27:29;;;;;;;;;;;;;;;4.70;42.25;92624.56;4943069;28;20017;-68
2024/03/27 03:29:54;;;;;;;;;;;;;;;4.83;41.13;92618.41;4940626;28;20376;-69
2024/03/27 03:32:19;;;;;;;;;;;;;;;4.96;41.62;92615.63;4943087;28;20620;-69
2024/03/27 03:34:45;;;;;;;;;;;;;;;4.98;41.39;92604.88;4938741;28;20829;-68
2024/03/27 03:37:10;;;;;;;;;;;;;;;5.01;40.83;92611.53;4944350;28;19926;-68
2024/03/27 03:39:35;;;;;;;;;;;;;;;4.99;42.24;92606.47;4940710;28;19927;-68
2024/03/27 03:42:01;;;;;;;;;;;;;;;4.97;41.60;92609.31;4942667;28;20484;-68
2024/03/27 03:44:26;;;;;;;;;;;;;;;4.97;41.19;92595.34;4941689;28;19965;-68
2024/03/27 03:46:51;;;;;;;;;;;;;;;4.97;41.57;92595.34;4941916;28;19950;-69
2024/03/27 03:49:16;;;;;;;;;;;;;;;4.92;42.94;92603.09;4942113;29;19926;-69
2024/03/27 03:51:43;;;;;;;;;;;;;;;4.87;43.03;92598.50;4942125;28;19934;-68
2024/03/27 03:54:08;;;;;;;;;;;;;;;4.95;41.06;92595.56;4941784;28;20033;-68
2024/03/27 03:56:33;;;;;;;;;;;;;;;4.98;41.17;92581.13;4941645;28;20415;-68
2024/03/27 03:59:00;;;;;;;;;;;;;;;4.99;41.54;92581.97;4941953;28;19930;-68
2024/03/27 04:01:26;;;;;;;;;;;;;;;4.81;41.26;92581.69;4941227;29;20013;-68
2024/03/27 04:03:51;;;;;;;;;;;;;;;4.92;42.31;92566.19;4941620;28;20009;-68
2024/03/27 04:06:16;;;;;;;;;;;;;;;4.95;41.52;92565.75;4941618;28;20446;-68
2024/03/27 04:08:41;;;;;;;;;;;;;;;4.99;41.47;92564.28;4942277;28;20343;-68
2024/03/27 04:11:07;;;;;;;;;;;;;;;4.94;40.37;92566.78;4940779;28;20288;-69
2024/03/27 04:13:32;;;;;;;;;;;;;;;4.95;42.48;92558.66;4942210;28;19941;-69
2024/03/27 04:15:58;;;;;;;;;;;;;;;4.93;41.08;92558.06;4940809;28;19984;-68
2024/03/27 04:18:23;;;;;;;;;;;;;;;4.91;41.60;92549.56;4939579;29;19930;-68
2024/03/27 04:20:48;;;;;;;;;;;;;;;4.82;43.32;92553.50;4942212;28;19933;-69
2024/03/27 04:23:13;;;;;;;;;;;;;;;4.68;42.15;92550.19;4939947;28;19964;-68
2024/03/27 04:25:46;;;;;;;;;;;;;;;4.73;43.65;92536.38;4941301;28;19941;-68
2024/03/27 04:28:11;;;;;;;;;;;;;;;4.82;41.89;92530.59;4925372;28;19989;-68
2024/03/27 04:30:36;;;;;;;;;;;;;;;4.89;41.17;92538.44;4935701;28;19927;-69
2024/03/27 04:33:02;;;;;;;;;;;;;;;4.92;40.74;92550.34;4927211;29;19933;-68
2024/03/27 04:35:27;;;;;;;;;;;;;;;4.99;40.99;92558.22;4938062;28;19922;-68
2024/03/27 04:37:52;;;;;;;;;;;;;;;5.08;40.86;92559.56;4941520;28;20493;-68
2024/03/27 04:40:17;;;;;;;;;;;;;;;5.17;40.46;92573.28;4941782;28;19942;-68
2024/03/27 04:42:43;;;;;;;;;;;;;;;5.20;40.12;92576.28;4939235;28;19937;-68
2024/03/27 04:45:08;;;;;;;;;;;;;;;5.19;40.09;92584.41;4938756;28;20269;-68
2024/03/27 04:47:36;;;;;;;;;;;;;;;5.15;40.46;92591.97;4940582;28;19931;-69
2024/03/27 04:50:02;;;;;;;;;;;;;;;5.16;40.64;92592.75;4937545;28;19930;-69
2024/03/27 04:52:27;;;;;;;;;;;;;;;5.19;40.84;92597.59;4941631;28;19929;-69
2024/03/27 04:54:53;;;;;;;;;;;;;;;5.24;41.20;92600.41;4941048;28;19933;-68
2024/03/27 04:57:18;;;;;;;;;;;;;;;5.32;41.25;92576.38;4940968;29;20025;-68
2024/03/27 04:59:44;;;;;;;;;;;;;;;5.38;41.02;92572.03;4937249;28;19927;-68
2024/03/27 05:02:10;;;;;;;;;;;;;;;5.48;41.04;92584.72;4938624;28;20021;-68
2024/03/27 05:04:35;;;;;;;;;;;;;;;4.84;41.91;92572.56;4940700;29;20056;-69
2024/03/27 05:07:00;;;;;;;;;;;;;;;5.05;42.73;92575.78;4941096;28;19973;-68
2024/03/27 05:09:25;;;;;;;;;;;;;;;5.19;41.67;92569.41;4941190;29;19926;-68
2024/03/27 05:11:51;;;;;;;;;;;;;;;5.36;41.80;92576.72;4940707;28;20002;-68
2024/03/27 05:14:17;;;;;;;;;;;;;;;5.47;41.59;92575.16;4940594;28;20527;-68
2024/03/27 05:16:43;;;;;;;;;;;;;;;5.59;41.57;92583.16;4940836;29;20335;-68
2024/03/27 05:19:09;;;;;;;;;;;;;;;5.67;41.14;92593.41;4940682;28;19930;-68
2024/03/27 05:21:34;;;;;;;;;;;;;;;5.69;40.20;92603.75;4940895;28;19931;-68
2024/03/27 05:23:59;;;;;;;;;;;;;;;5.93;40.39;92607.31;4940211;28;19927;-68
2024/03/27 05:26:25;;;;;;;;;;;;;;;5.95;40.53;92592.03;4940737;28;20000;-68
2024/03/27 05:28:50;;;;;;;;;;;;;;;5.87;41.89;92592.34;4940402;29;19926;-69
2024/03/27 05:31:15;;;;;;;;;;;;;;;5.78;42.97;92589.22;4939875;28;19926;-68
2024/03/27 05:33:40;;;;;;;;;;;;;;;5.92;40.91;92594.34;4940086;28;19930;-69
2024/03/27 05:36:07;;;;;;;;;;;;;;;6.11;41.18;92587.16;4939876;28;19945;-69
2024/03/27 05:38:32;;;;;;;;;;;;;;;6.20;41.15;92591.13;4939779;28;19957;-69
2024/03/27 05:40:57;;;;;;;;;;;;;;;6.29;41.35;92594.22;4940263;28;19922;-69
2024/03/27 05:43:22;;;;;;;;;;;;;;;6.42;40.77;92605.66;4939336;28;19930;-70
2024/03/27 05:45:47;;;;;;;;;;;;;;;6.52;40.41;92613.06;4937884;28;19922;-69
2024/03/27 05:48:13;;;;;;;;;;;;;;;6.52;40.31;92608.56;4940134;28;19937;-69
2024/03/27 05:50:38;;;;;;;;;;;;;;;6.55;40.23;92608.13;4939085;28;20381;-69
2024/03/27 05:53:04;;;;;;;;;;;;;;;6.49;40.14;92611.66;4939982;28;20020;-69
2024/03/27 05:55:29;;;;;;;;;;;;;;;6.53;40.13;92614.66;4940201;28;19973;-69
2024/03/27 05:57:54;;;;;;;;;;;;;;;6.57;40.05;92613.19;4938551;28;21378;-69
2024/03/27 06:00:19;;;;;;;;;;;;;;;6.66;40.06;92608.38;4937678;29;20133;-69
2024/03/27 06:02:45;;;;;;;;;;;;;;;6.76;39.96;92614.72;4939362;28;19926;-69
2024/03/27 06:05:10;;;;;;;;;;;;;;;6.81;39.63;92618.50;4940004;29;20016;-69
2024/03/27 06:07:36;;;;;;;;;;;;;;;6.78;40.00;92625.06;4940101;28;19973;-69
2024/03/27 06:10:01;;;;;;;;;;;;;;;6.90;40.28;92622.41;4939686;28;19930;-69
2024/03/27 06:12:26;;;;;;;;;;;;;;;7.04;39.49;92614.28;4939923;28;20559;-69
2024/03/27 06:14:51;;;;;;;;;;;;;;;7.07;39.88;92613.81;4939722;28;20476;-69
2024/03/27 06:17:16;;;;;;;;;;;;;;;7.11;40.14;92612.31;4939894;29;19935;-69
2024/03/27 06:19:42;;;;;;;;;;;;;;;7.20;39.97;92608.28;4939592;28;19984;-70
2024/03/27 06:22:07;;;;;;;;;;;;;;;7.28;40.07;92615.09;4939684;28;19938;-69
2024/03/27 06:24:33;;;;;;;;;;;;;;;7.36;39.89;92627.16;4939831;28;19931;-69
2024/03/27 06:26:58;;;;;;;;;;;;;;;7.43;39.75;92632.31;4953883;28;19929;-69
2024/03/27 06:29:23;;;;;;;;;;;;;;;7.50;39.72;92638.28;4939285;29;19927;-69
2024/03/27 06:31:49;;;;;;;;;;;;;;;7.62;39.57;92631.13;4939567;28;19982;-70
2024/03/27 06:34:14;;;;;;;;;;;;;;;7.75;39.57;92651.28;4937831;28;19934;-70
2024/03/27 06:36:39;;;;;;;;;;;;;;;7.83;39.37;92646.69;4953972;28;19973;-70
2024/03/27 06:39:12;;;;;;;;;;;;;;;7.92;39.11;92639.97;4938084;28;20540;-69
2024/03/27 06:41:37;;;;;;;;;;;;;;;7.76;38.56;92636.97;4937172;28;19923;-69
2024/03/27 06:44:03;;;;;;;;;;;;;;;7.76;38.58;92631.69;4938377;28;20281;-70
2024/03/27 06:46:36;;;;;;;;;;;;;;;7.94;38.71;92627.31;4934142;28;19922;-69
2024/03/27 06:49:17;;;;;;;;;;;;;;;8.14;38.38;92621.59;4940051;28;19996;-70
2024/03/27 06:51:44;;;;;;;;;;;;;;;8.34;38.26;92617.72;4939258;28;19922;-69
2024/03/27 06:54:09;;;;;;;;;;;;;;;8.36;37.91;92618.28;4939717;28;19926;-69
2024/03/27 06:56:35;;;;;;;;;;;;;;;8.20;37.96;92614.56;4939852;28;19933;-69
2024/03/27 06:59:00;;;;;;;;;;;;;;;8.42;37.88;92622.63;4942963;28;19930;-70
2024/03/27 07:01:25;;;;;;;;;;;;;;;8.55;36.98;92621.53;4941328;28;19923;-69
2024/03/27 07:03:50;;;;;;;;;;;;;;;8.70;37.55;92612.22;4942517;28;19926;-69
2024/03/27 07:06:16;;;;;;;;;;;;;;;8.86;37.46;92623.06;4942966;28;19927;-70
2024/03/27 07:08:41;;;;;;;;;;;;;;;8.92;36.37;92632.75;4943524;28;20029;-70
2024/03/27 07:11:06;;;;;;;;;;;;;;;9.13;36.83;92638.38;4942969;28;19938;-70
2024/03/27 07:13:31;;;;;;;;;;;;;;;9.11;35.22;92629.88;4943428;29;20487;-69
2024/03/27 07:15:56;;;;;;;;;;;;;;;9.08;35.92;92624.00;4942844;28;20700;-70
2024/03/27 07:18:22;;;;;;;;;;;;;;;9.30;36.07;92625.91;4958914;28;20518;-70
2024/03/27 07:20:57;;;;;;;;;;;;;;;9.35;36.46;92635.78;4943257;28;20517;-70
2024/03/27 07:23:22;;;;;;;;;;;;;;;9.79;37.38;92627.09;4942384;28;20011;-70
2024/03/27 07:25:47;;;;;;;;;;;;;;;9.91;37.34;92631.47;4942313;28;20683;-70
2024/03/27 07:28:12;;;;;;;;;;;;;;;10.01;36.94;92628.97;4943059;29;19976;-70
2024/03/27 07:30:37;;;;;;;;;;;;;;;10.08;36.36;92624.28;4941941;28;19972;-70
2024/03/27 07:33:03;;;;;;;;;;;;;;;10.11;36.79;92612.34;4940935;28;19964;-70
2024/03/27 07:35:28;;;;;;;;;;;;;;;9.91;35.07;92604.91;4941026;28;19985;-70
2024/03/27 07:37:54;;;;;;;;;;;;;;;9.78;34.60;92612.19;4942152;28;20454;-70
2024/03/27 07:40:19;;;;;;;;;;;;;;;9.49;35.63;92606.25;4942837;28;20041;-70
2024/03/27 07:42:44;;;;;;;;;;;;;;;9.49;35.99;92604.41;4941089;28;19934;-70
2024/03/27 07:45:10;;;;;;;;;;;;;;;9.40;35.54;92593.41;4942313;28;19927;-70
2024/03/27 07:47:35;;;;;;;;;;;;;;;9.62;35.89;92595.25;4941617;28;19938;-70
2024/03/27 07:50:02;;;;;;;;;;;;;;;9.74;33.98;92597.00;4941387;28;19937;-70
2024/03/27 07:52:28;;;;;;;;;;;;;;;10.05;35.46;92598.19;4940999;29;20343;-70
2024/03/27 07:54:53;;;;;;;;;;;;;;;10.36;34.60;92598.53;4942492;28;19938;-69
2024/03/27 07:57:18;;;;;;;;;;;;;;;10.27;33.63;92585.94;4941987;28;20719;-69
2024/03/27 07:59:44;;;;;;;;;;;;;;;10.24;34.54;92584.56;4939193;28;19934;-68
2024/03/27 08:02:09;;;;;;;;;;;;;;;9.88;33.71;92595.59;4940931;28;19931;-68
2024/03/27 08:04:34;;;;;;;;;;;;;;;10.31;32.74;92587.03;4942365;29;19926;-68
2024/03/27 08:06:59;;;;;;;;;;;;;;;9.91;33.47;92589.78;4941918;28;19926;-68
2024/03/27 08:09:25;;;;;;;;;;;;;;;9.78;34.29;92590.13;4940922;28;19930;-68
2024/03/27 08:11:53;;;;;;;;;;;;;;;9.84;33.91;92586.50;4941322;28;20462;-69
2024/03/27 08:14:18;;;;;;;;;;;;;;;9.55;34.47;92595.44;4941931;28;20139;-69
2024/03/27 08:16:44;;;;;;;;;;;;;;;8.77;37.74;92596.94;4941596;29;19930;-69
2024/03/27 08:19:09;;;;;;;;;;;;;;;8.27;38.01;92601.94;4940749;28;19926;-69
2024/03/27 08:21:35;;;;;;;;;;;;;;;7.83;39.01;92599.00;4940125;29;19950;-69
2024/03/27 08:24:00;;;;;;;;;;;;;;;7.81;39.37;92598.44;4940649;28;19974;-69
2024/03/27 08:26:25;;;;;;;;;;;;;;;7.82;40.29;92598.19;4940814;28;19982;-69
2024/03/27 08:28:51;;;;;;;;;;;;;;;7.37;41.16;92599.63;4941682;28;19985;-69
2024/03/27 08:31:16;;;;;;;;;;;;;;;7.25;41.52;92605.75;4939552;28;19930;-69
2024/03/27 08:33:44;;;;;;;;;;;;;;;7.38;41.74;92588.81;4940640;28;20025;-69
2024/03/27 08:36:09;;;;;;;;;;;;;;;6.95;43.36;92598.75;4941515;28;19930;-69
2024/03/27 08:38:35;;;;;;;;;;;;;;;6.96;44.57;92596.88;4940458;28;20455;-69
2024/03/27 08:41:00;;;;;;;;;;;;;;;6.79;44.46;92604.69;4941223;28;19922;-69
2024/03/27 08:43:25;;;;;;;;;;;;;;;6.75;44.48;92602.53;4941208;28;19926;-69
2024/03/27 08:45:50;;;;;;;;;;;;;;;6.91;44.90;92602.06;4938583;28;19926;-69
2024/03/27 08:48:16;;;;;;;;;;;;;;;7.25;45.21;92594.38;4940221;28;20408;-69
2024/03/27 08:50:41;;;;;;;;;;;;;;;6.82;46.25;92598.97;4941217;28;20315;-69
2024/03/27 08:53:06;;;;;;;;;;;;;;;7.55;44.76;92588.09;4941503;28;19934;-69
2024/03/27 08:55:32;;;;;;;;;;;;;;;8.09;43.56;92602.16;4941178;28;20295;-69
2024/03/27 08:57:57;;;;;;;;;;;;;;;8.14;41.52;92595.09;4939714;28;19938;-69
2024/03/27 09:00:23;;;;;;;;;;;;;;;7.87;43.13;92597.50;4938294;28;19930;-69
2024/03/27 09:02:48;;;;;;;;;;;;;;;7.66;43.04;92589.13;4941783;28;20343;-69
2024/03/27 09:05:16;;;;;;;;;;;;;;;7.41;43.44;92587.53;4940670;28;19931;-70
2024/03/27 09:07:41;;;;;;;;;;;;;;;7.63;42.53;92585.09;4939200;28;20467;-70
2024/03/27 09:10:06;;;;;;;;;;;;;;;7.68;43.05;92591.53;4939427;28;19945;-70
2024/03/27 09:12:32;;;;;;;;;;;;;;;7.92;44.10;92589.63;4940937;28;19981;-70
2024/03/27 09:14:57;;;;;;;;;;;;;;;7.94;43.91;92587.56;4940111;28;19993;-70
2024/03/27 09:17:22;;;;;;;;;;;;;;;8.36;42.86;92589.13;4942305;28;19930;-70
2024/03/27 09:19:47;;;;;;;;;;;;;;;7.82;44.58;92598.19;4940209;28;20678;-70
2024/03/27 09:22:13;;;;;;;;;;;;;;;7.93;44.32;92612.47;4937211;29;19926;-70
2024/03/27 09:24:38;;;;;;;;;;;;;;;8.17;44.11;92615.03;4938984;29;19927;-70
2024/03/27 09:27:04;;;;;;;;;;;;;;;8.50;43.25;92618.00;4939813;28;19938;-70
2024/03/27 09:29:29;;;;;;;;;;;;;;;8.46;41.79;92612.34;4940686;29;20014;-70
2024/03/27 09:31:54;;;;;;;;;;;;;;;8.26;43.49;92621.53;4939852;28;19931;-70
2024/03/27 09:34:19;;;;;;;;;;;;;;;8.26;43.65;92621.53;4939794;28;19977;-69
2024/03/27 09:36:45;;;;;;;;;;;;;;;8.30;44.14;92620.03;4940621;29;20017;-69
2024/03/27 09:39:11;;;;;;;;;;;;;;;7.97;44.97;92632.16;4940148;28;19933;-69
2024/03/27 09:41:36;;;;;;;;;;;;;;;8.05;45.42;92631.78;4940292;29;19980;-68
2024/03/27 09:44:01;;;;;;;;;;;;;;;8.05;45.64;92629.13;4938388;28;19977;-68
2024/03/27 09:46:26;;;;;;;;;;;;;;;8.08;45.59;92632.31;4937339;28;19934;-69
2024/03/27 09:48:52;;;;;;;;;;;;;;;7.91;45.81;92625.13;4902790;29;20593;-68
2024/03/27 09:51:18;;;;;;;;;;;;;;;8.03;46.46;92623.25;4905477;29;19954;-69
2024/03/27 09:53:43;;;;;;;;;;;;;;;7.28;48.88;92628.31;4919609;29;19931;-68
2024/03/27 09:56:09;;;;;;;;;;;;;;;7.32;48.86;92623.34;4882163;29;19923;-69
2024/03/27 09:58:34;;;;;;;;;;;;;;;7.65;48.09;92624.59;4900195;29;19931;-68
2024/03/27 10:00:59;;;;;;;;;;;;;;;7.47;48.27;92633.47;4896118;29;19922;-69
2024/03/27 10:03:25;;;;;;;;;;;;;;;6.76;50.93;92632.41;4901529;29;19966;-68
2024/03/27 10:05:50;;;;;;;;;;;;;;;6.99;50.14;92634.28;4900301;29;20025;-68
2024/03/27 10:08:15;;;;;;;;;;;;;;;7.29;50.21;92627.28;4876124;29;20329;-69
2024/03/27 10:10:40;;;;;;;;;;;;;;;7.47;49.97;92623.69;4891856;29;20701;-69
2024/03/27 10:13:06;;;;;;;;;;;;;;;7.54;49.29;92618.25;4902353;29;19934;-69
2024/03/27 10:15:34;;;;;;;;;;;;;;;7.43;49.73;92611.13;4920472;29;19979;-68
2024/03/27 10:17:59;;;;;;;;;;;;;;;6.71;51.72;92604.03;4901547;29;19935;-68
2024/03/27 10:20:25;;;;;;;;;;;;;;;6.42;52.67;92611.72;4890933;29;19923;-66
2024/03/27 10:22:50;;;;;;;;;;;;;;;6.64;52.70;92616.53;4898126;29;19983;-67
2024/03/27 10:25:15;;;;;;;;;;;;;;;7.04;51.84;92611.63;4906335;29;20463;-66
2024/03/27 10:27:40;;;;;;;;;;;;;;;6.73;51.20;92623.09;4906231;29;19957;-68
2024/03/27 10:30:07;;;;;;;;;;;;;;;6.54;52.09;92617.09;4905416;29;20021;-66
2024/03/27 10:32:32;;;;;;;;;;;;;;;6.91;52.46;92620.59;4915100;29;20482;-67
2024/03/27 10:34:57;;;;;;;;;;;;;;;6.87;52.10;92630.81;4913687;29;19927;-66
2024/03/27 10:37:23;;;;;;;;;;;;;;;6.97;51.63;92625.75;4892242;29;20350;-66
2024/03/27 10:39:48;;;;;;;;;;;;;;;6.87;52.54;92622.91;4907410;29;19924;-67
2024/03/27 10:42:23;;;;;;;;;;;;;;;7.18;51.12;92625.44;4906211;29;19938;-66
2024/03/27 10:44:48;;;;;;;;;;;;;;;7.10;51.26;92635.31;4893222;29;19931;-66
2024/03/27 10:47:14;;;;;;;;;;;;;;;7.15;50.74;92622.19;4910398;29;20297;-66
2024/03/27 10:49:42;;;;;;;;;;;;;;;7.19;51.30;92630.50;4935968;28;19944;-68
2024/03/27 10:52:08;;;;;;;;;;;;;;;7.42;50.38;92634.19;4928401;29;20288;-66
2024/03/27 10:54:34;;;;;;;;;;;;;;;7.21;50.76;92640.84;4931379;28;20067;-67
2024/03/27 10:56:59;;;;;;;;;;;;;;;7.35;49.08;92644.84;4952984;28;20033;-67
2024/03/27 10:59:25;;;;;;;;;;;;;;;7.56;48.56;92647.16;4948847;28;19927;-67
2024/03/27 11:01:59;;;;;;;;;;;;;;;6.70;50.59;92649.97;4933626;28;19922;-67
2024/03/27 11:04:26;;;;;;;;;;;;;;;6.77;51.85;92648.03;4932175;29;20387;-66
2024/03/27 11:06:51;;;;;;;;;;;;;;;6.78;51.98;92654.16;4929645;28;19923;-66
2024/03/27 11:09:16;;;;;;;;;;;;;;;7.08;50.61;92653.28;4931135;29;19981;-66
2024/03/27 11:11:42;;;;;;;;;;;;;;;7.40;50.98;92660.88;4929936;29;20021;-66
2024/03/27 11:14:09;;;;;;;;;;;;;;;7.71;49.44;92671.31;4932416;28;19969;-66
2024/03/27 11:16:34;;;;;;;;;;;;;;;7.98;49.72;92673.50;4945576;29;19919;-67
2024/03/27 11:19:00;;;;;;;;;;;;;;;7.93;48.48;92676.03;4940778;29;19938;-67
2024/03/27 11:21:27;;;;;;;;;;;;;;;7.43;49.84;92664.91;4948126;28;19993;-66
2024/03/27 11:23:52;;;;;;;;;;;;;;;7.96;48.72;92667.59;4948554;28;20005;-69
2024/03/27 11:26:27;;;;;;;;;;;;;;;8.22;48.06;92668.13;4941761;28;20024;-69
2024/03/27 11:28:52;;;;;;;;;;;;;;;8.34;47.63;92669.91;4940983;28;20521;-69
2024/03/27 11:31:19;;;;;;;;;;;;;;;7.88;49.11;92666.13;4942195;28;19926;-68
2024/03/27 11:33:44;;;;;;;;;;;;;;;8.03;48.68;92657.69;4940763;28;19922;-69
2024/03/27 11:36:10;;;;;;;;;;;;;;;7.30;50.18;92657.16;4935889;29;19922;-68
2024/03/27 11:38:35;;;;;;;;;;;;;;;7.71;49.87;92644.00;4942111;28;19965;-69
2024/03/27 11:41:00;;;;;;;;;;;;;;;7.91;49.11;92656.91;4942396;29;20462;-69
2024/03/27 11:43:25;;;;;;;;;;;;;;;7.87;49.53;92655.78;4939049;28;20335;-68
2024/03/27 11:45:51;;;;;;;;;;;;;;;7.73;49.93;92657.84;4942373;28;19969;-69
2024/03/27 11:48:16;;;;;;;;;;;;;;;7.43;51.12;92674.66;4941662;28;19926;-69
2024/03/27 11:50:41;;;;;;;;;;;;;;;7.78;49.68;92679.97;4941129;28;19961;-68
2024/03/27 11:53:09;;;;;;;;;;;;;;;8.00;48.97;92689.97;4941892;28;19930;-69
2024/03/27 11:55:34;;;;;;;;;;;;;;;7.93;47.63;92694.59;4941758;28;20177;-69
2024/03/27 11:58:00;;;;;;;;;;;;;;;8.43;47.38;92702.97;4939023;28;19941;-69
2024/03/27 12:00:25;;;;;;;;;;;;;;;8.15;46.63;92701.91;4939990;28;19922;-69
2024/03/27 12:02:50;;;;;;;;;;;;;;;7.90;47.50;92700.34;4939806;28;19953;-69
2024/03/27 12:05:16;;;;;;;;;;;;;;;7.24;48.53;92710.00;4940274;29;19923;-69
2024/03/27 12:07:41;;;;;;;;;;;;;;;6.78;49.83;92701.75;4919774;29;20408;-67
2024/03/27 12:10:09;;;;;;;;;;;;;;;7.30;49.73;92702.97;4938714;28;19930;-68
2024/03/27 12:12:34;;;;;;;;;;;;;;;7.02;51.16;92704.44;4952217;28;19926;-68
2024/03/27 12:15:00;;;;;;;;;;;;;;;7.18;50.80;92700.34;4939188;28;20126;-68
2024/03/27 12:17:32;;;;;;;;;;;;;;;6.74;51.63;92696.09;4938308;28;19927;-68
2024/03/27 12:19:58;;;;;;;;;;;;;;;6.44;53.26;92686.31;4937996;28;19927;-68
2024/03/27 12:22:25;;;;;;;;;;;;;;;7.17;52.11;92696.06;4939407;28;19926;-68
2024/03/27 12:24:51;;;;;;;;;;;;;;;6.75;52.71;92700.38;4936973;28;20016;-68
2024/03/27 12:27:22;;;;;;;;;;;;;;;6.71;52.96;92696.56;4939287;28;19994;-68
2024/03/27 12:29:49;;;;;;;;;;;;;;;7.18;51.12;92696.88;4939463;28;19942;-68
2024/03/27 12:32:17;;;;;;;;;;;;;;;6.55;53.74;92702.47;4939435;29;19937;-68
2024/03/27 12:34:42;;;;;;;;;;;;;;;6.06;54.40;92709.31;4939019;28;19926;-68
2024/03/27 12:37:08;;;;;;;;;;;;;;;6.05;54.82;92710.38;4939564;28;19960;-68
2024/03/27 12:39:33;;;;;;;;;;;;;;;5.83;55.94;92713.47;4921790;28;19958;-69
2024/03/27 12:41:58;;;;;;;;;;;;;;;6.30;54.50;92711.31;4917756;29;20016;-69
2024/03/27 12:44:23;;;;;;;;;;;;;;;6.98;53.29;92705.94;4919242;29;20577;-69
2024/03/27 12:46:49;;;;;;;;;;;;;;;6.79;53.65;92711.28;4918727;29;20010;-69
2024/03/27 12:49:14;;;;;;;;;;;;;;;6.22;55.09;92700.00;4919361;29;20063;-69